Аэропорт
Кишинев (LUKK)

 LUKK / KIV
vACC Молдова
Кишинев (LUUU)
Кишинев (LUUU)
 46.92770, 28.93100  / 399 ft

 LUKK 220630Z 28003KT CAVOK 11/06 Q1021 R26/D NOSIG
 TAF LUKK 212320Z 2200/2224 VRB05KT CAVOK TEMPO 2202/2206 3000 BR
Название сценария Тип сценария Flight Simulator 9 Flight Simulator X Prepar3D v2 Prepar3D v3 Prepar3D v4 Prepar3D v5 xPlane
LUKK Chisinau X платный(+демо)


2020 © VATRUS division (Privacy Policy)